createdAt,value
2022-12-03T00:01:39.416Z,28.95
2022-12-03T00:04:07.634Z,27.15
2022-12-03T00:06:37.112Z,28.55
2022-12-03T00:09:05.900Z,25.33
2022-12-03T00:11:34.682Z,28.23
2022-12-03T00:14:02.803Z,27.35
2022-12-03T00:16:31.129Z,27.45
2022-12-03T00:18:59.247Z,28.23
2022-12-03T00:21:27.592Z,27.95
2022-12-03T00:23:57.200Z,27.42
2022-12-03T00:26:25.265Z,27.58
2022-12-03T00:28:54.784Z,27.75
2022-12-03T00:31:23.712Z,28.75
2022-12-03T00:33:52.234Z,28.92
2022-12-03T00:36:20.882Z,27.48
2022-12-03T00:38:49.050Z,30.15
2022-12-03T00:41:18.581Z,27.98
2022-12-03T00:43:46.571Z,28.58
2022-12-03T00:46:19.686Z,28.70
2022-12-03T00:48:49.285Z,26.15
2022-12-03T00:51:17.357Z,26.55
2022-12-03T00:53:45.816Z,26.52
2022-12-03T00:56:13.895Z,25.33
2022-12-03T00:58:43.503Z,25.25
2022-12-03T01:01:11.918Z,26.35
2022-12-03T01:03:40.000Z,25.85
2022-12-03T01:06:08.054Z,27.52
2022-12-03T01:08:36.090Z,26.92
2022-12-03T01:11:04.320Z,32.42
2022-12-03T01:13:32.338Z,30.08
2022-12-03T01:16:01.841Z,28.42
2022-12-03T01:18:30.270Z,27.35
2022-12-03T01:21:01.063Z,28.45
2022-12-03T01:23:29.167Z,28.30
2022-12-03T01:25:57.380Z,26.92
2022-12-03T01:28:25.473Z,26.40
2022-12-03T01:31:11.072Z,27.55
2022-12-03T01:33:40.619Z,26.17
2022-12-03T01:36:09.353Z,27.10
2022-12-03T01:38:37.526Z,24.90
2022-12-03T01:41:10.182Z,24.55
2022-12-03T01:43:40.126Z,26.23
2022-12-03T01:46:08.455Z,23.90
2022-12-03T01:48:38.995Z,24.00
2022-12-03T01:51:09.084Z,23.80
2022-12-03T01:53:37.477Z,23.45
2022-12-03T01:56:07.894Z,25.23
2022-12-03T01:58:40.450Z,25.13
2022-12-03T02:01:14.411Z,25.48
2022-12-03T02:03:43.206Z,25.63
2022-12-03T02:06:17.385Z,26.73
2022-12-03T02:08:46.186Z,26.23
2022-12-03T02:11:21.206Z,26.08
2022-12-03T02:13:55.484Z,28.15
2022-12-03T02:16:25.517Z,30.20
2022-12-03T02:18:53.832Z,31.25
2022-12-03T02:21:29.086Z,32.58
2022-12-03T02:24:06.011Z,33.47
2022-12-03T02:26:35.564Z,34.00
2022-12-03T02:29:03.707Z,32.95
2022-12-03T02:31:32.451Z,31.02
2022-12-03T02:34:00.653Z,30.45
2022-12-03T02:36:30.781Z,27.85
2022-12-03T02:38:59.056Z,27.23
2022-12-03T02:41:44.934Z,26.05
2022-12-03T02:44:14.491Z,28.30
2022-12-03T02:46:43.074Z,31.85
2022-12-03T02:49:11.375Z,29.83
2022-12-03T02:51:39.467Z,31.55
2022-12-03T02:54:07.521Z,31.85
2022-12-03T02:56:35.723Z,31.50
2022-12-03T02:59:06.829Z,30.27
2022-12-03T03:01:36.417Z,30.52
2022-12-03T03:04:05.688Z,32.53
2022-12-03T03:06:33.890Z,31.15
2022-12-03T03:09:02.098Z,31.75
2022-12-03T03:11:30.529Z,32.35
2022-12-03T03:13:58.540Z,30.40
2022-12-03T03:16:26.812Z,30.83
2022-12-03T03:18:59.230Z,31.73
2022-12-03T03:21:27.338Z,29.80
2022-12-03T03:23:55.443Z,29.67
2022-12-03T03:26:24.442Z,28.42
2022-12-03T03:28:53.181Z,27.25
2022-12-03T03:31:24.217Z,28.77
2022-12-03T03:33:52.890Z,31.02
2022-12-03T03:36:23.861Z,31.40
2022-12-03T03:38:52.387Z,32.50
2022-12-03T03:41:40.340Z,31.95
2022-12-03T03:44:09.760Z,29.40
2022-12-03T03:46:38.828Z,28.95
2022-12-03T03:49:07.902Z,31.10
2022-12-03T03:51:38.472Z,32.92
2022-12-03T03:54:07.990Z,33.75
2022-12-03T03:56:36.628Z,30.60
2022-12-03T03:59:05.184Z,30.58
2022-12-03T04:01:34.197Z,32.38
2022-12-03T04:04:06.563Z,32.22
2022-12-03T04:06:36.983Z,31.35
2022-12-03T04:09:06.294Z,34.10
2022-12-03T04:11:51.933Z,37.22
2022-12-03T04:14:20.413Z,37.00
2022-12-03T04:16:48.555Z,36.45
2022-12-03T04:19:16.767Z,33.63
2022-12-03T04:22:03.772Z,33.60
2022-12-03T04:24:31.827Z,32.30
2022-12-03T04:27:17.412Z,30.35
2022-12-03T04:29:45.440Z,28.02
2022-12-03T04:32:30.864Z,27.88
2022-12-03T04:35:16.492Z,28.52
2022-12-03T04:37:46.047Z,27.67
2022-12-03T04:40:29.010Z,25.38
2022-12-03T04:42:56.979Z,24.70
2022-12-03T04:45:25.072Z,24.98
2022-12-03T04:47:53.093Z,26.45
2022-12-03T04:50:21.096Z,24.77
2022-12-03T04:52:50.468Z,24.95
2022-12-03T04:55:18.552Z,22.73
2022-12-03T04:57:46.541Z,24.83
2022-12-03T05:00:16.594Z,24.60
2022-12-03T05:02:44.837Z,24.30
2022-12-03T05:05:12.832Z,24.83
2022-12-03T05:07:40.945Z,26.27
2022-12-03T05:10:14.696Z,26.40
2022-12-03T05:12:42.980Z,25.33
2022-12-03T05:15:11.442Z,25.35
2022-12-03T05:17:39.485Z,25.27
2022-12-03T05:20:27.402Z,26.13
2022-12-03T05:22:55.420Z,24.92
2022-12-03T05:25:24.826Z,25.58
2022-12-03T05:27:53.320Z,25.55
2022-12-03T05:30:22.378Z,25.65
2022-12-03T05:32:50.988Z,26.80
2022-12-03T05:35:18.965Z,26.45
2022-12-03T05:37:47.283Z,26.48
2022-12-03T05:40:16.514Z,24.05
2022-12-03T05:42:53.966Z,24.42
2022-12-03T05:45:22.659Z,23.77
2022-12-03T05:47:51.027Z,24.35
2022-12-03T05:50:19.440Z,23.67
2022-12-03T05:52:47.792Z,24.60
2022-12-03T05:55:16.308Z,24.13
2022-12-03T05:57:47.081Z,22.80
2022-12-03T06:00:17.746Z,24.17
2022-12-03T06:02:45.998Z,21.92
2022-12-03T06:05:16.973Z,23.83
2022-12-03T06:07:45.122Z,22.35
2022-12-03T06:10:15.106Z,22.70
2022-12-03T06:12:43.652Z,23.42
2022-12-03T06:15:14.269Z,23.55
2022-12-03T06:17:43.140Z,24.52
2022-12-03T06:20:15.084Z,24.30
2022-12-03T06:22:43.481Z,23.90
2022-12-03T06:25:12.144Z,24.13
2022-12-03T06:27:40.702Z,24.45
2022-12-03T06:30:10.061Z,25.25
2022-12-03T06:32:39.507Z,26.92
2022-12-03T06:35:07.935Z,24.40
2022-12-03T06:37:35.989Z,20.60
2022-12-03T06:40:04.248Z,21.52
2022-12-03T06:42:32.215Z,21.88
2022-12-03T06:45:00.419Z,21.60
2022-12-03T06:47:31.339Z,20.83
2022-12-03T06:50:00.813Z,21.70
2022-12-03T06:52:28.868Z,21.77
2022-12-03T06:54:57.131Z,21.83
2022-12-03T06:57:25.405Z,22.58
2022-12-03T06:59:53.842Z,24.05
2022-12-03T07:02:22.071Z,21.75
2022-12-03T07:04:50.144Z,22.88
2022-12-03T07:07:19.765Z,23.23
2022-12-03T07:09:47.800Z,24.10
2022-12-03T07:12:15.830Z,23.30
2022-12-03T07:14:43.866Z,23.65
2022-12-03T07:17:12.371Z,23.63
2022-12-03T07:19:40.987Z,22.33
2022-12-03T07:22:09.420Z,21.00
2022-12-03T07:24:38.845Z,22.10
2022-12-03T07:27:06.863Z,22.50
2022-12-03T07:29:34.906Z,23.30
2022-12-03T07:32:03.100Z,23.05
2022-12-03T07:34:31.243Z,24.70
2022-12-03T07:36:59.629Z,22.88
2022-12-03T07:39:27.881Z,23.63
2022-12-03T07:41:58.016Z,24.08
2022-12-03T07:44:26.391Z,24.20
2022-12-03T07:46:54.585Z,23.77
2022-12-03T07:49:22.673Z,21.65
2022-12-03T07:51:54.528Z,21.65
2022-12-03T07:54:23.098Z,23.70
2022-12-03T07:56:54.406Z,22.90
2022-12-03T07:59:27.558Z,21.73
2022-12-03T08:01:55.736Z,23.00
2022-12-03T08:04:23.934Z,23.13
2022-12-03T08:06:52.187Z,22.13
2022-12-03T08:09:20.316Z,22.50
2022-12-03T08:11:50.552Z,23.08
2022-12-03T08:14:20.911Z,26.38
2022-12-03T08:16:50.442Z,25.67
2022-12-03T08:19:19.533Z,23.08
2022-12-03T08:21:47.654Z,22.75
2022-12-03T08:24:17.849Z,21.25
2022-12-03T08:26:47.684Z,22.17
2022-12-03T08:29:20.875Z,25.25
2022-12-03T08:31:54.858Z,27.80
2022-12-03T08:34:25.532Z,21.02
2022-12-03T08:36:59.326Z,23.73
2022-12-03T08:39:33.543Z,23.40
2022-12-03T08:42:29.633Z,21.58
2022-12-03T08:44:59.573Z,19.98
2022-12-03T08:47:30.765Z,19.27
2022-12-03T08:50:06.841Z,19.75
2022-12-03T08:52:35.704Z,20.02
2022-12-03T08:55:30.607Z,19.55
2022-12-03T08:57:59.514Z,20.52
2022-12-03T09:00:28.071Z,20.27
2022-12-03T09:03:02.085Z,19.98
2022-12-03T09:05:32.423Z,20.00
2022-12-03T09:08:00.762Z,21.92
2022-12-03T09:10:29.052Z,19.45
2022-12-03T09:12:57.166Z,19.05
2022-12-03T09:15:25.441Z,18.42
2022-12-03T09:17:53.693Z,18.67
2022-12-03T09:20:23.136Z,18.60
2022-12-03T09:22:51.231Z,18.83
2022-12-03T09:25:19.472Z,20.08
2022-12-03T09:27:47.559Z,18.88
2022-12-03T09:30:16.392Z,28.08
2022-12-03T09:32:44.648Z,26.65
2022-12-03T09:35:13.736Z,22.25
2022-12-03T09:37:43.149Z,20.25
2022-12-03T09:40:12.538Z,18.67
2022-12-03T09:42:40.978Z,17.02
2022-12-03T09:45:12.685Z,16.13
2022-12-03T09:47:45.900Z,17.05
2022-12-03T09:50:20.178Z,17.67
2022-12-03T09:52:51.148Z,17.92
2022-12-03T09:55:27.128Z,17.30
2022-12-03T09:57:56.876Z,16.92
2022-12-03T10:00:27.369Z,17.80
2022-12-03T10:02:58.657Z,16.75
2022-12-03T10:05:27.262Z,16.20
2022-12-03T10:08:04.616Z,16.63
2022-12-03T10:10:34.939Z,17.70
2022-12-03T10:13:04.312Z,19.00
2022-12-03T10:15:35.776Z,18.35
2022-12-03T10:18:17.582Z,17.17
2022-12-03T10:20:45.773Z,16.55
2022-12-03T10:23:22.357Z,16.83
2022-12-03T10:25:52.943Z,18.17
2022-12-03T10:28:35.578Z,17.73
2022-12-03T10:31:05.906Z,17.65
2022-12-03T10:33:36.558Z,16.35
2022-12-03T10:36:20.401Z,17.13
2022-12-03T10:39:08.281Z,19.30
2022-12-03T10:41:37.737Z,18.27
2022-12-03T10:44:20.135Z,19.05
2022-12-03T10:47:06.522Z,25.88
2022-12-03T10:49:34.723Z,18.98
2022-12-03T10:52:03.195Z,18.98
2022-12-03T10:54:34.710Z,18.73
2022-12-03T10:57:03.336Z,18.27
2022-12-03T10:59:33.972Z,17.40
2022-12-03T11:02:05.411Z,17.70
2022-12-03T11:04:35.539Z,18.45
2022-12-03T11:07:04.785Z,19.35
2022-12-03T11:09:34.616Z,19.35
2022-12-03T11:12:05.634Z,18.38
2022-12-03T11:15:06.344Z,19.42
2022-12-03T11:17:46.650Z,19.77
2022-12-03T11:20:53.360Z,22.95
2022-12-03T11:23:54.591Z,20.90
2022-12-03T11:26:57.515Z,22.15
2022-12-03T11:29:58.587Z,22.55
2022-12-03T11:33:06.414Z,22.75
2022-12-03T11:36:15.264Z,22.10
2022-12-03T11:38:55.767Z,23.20
2022-12-03T11:41:26.795Z,21.65
2022-12-03T11:44:21.426Z,22.73
2022-12-03T11:46:49.971Z,27.80
2022-12-03T11:49:35.177Z,24.35
2022-12-03T11:52:13.284Z,23.02
2022-12-03T11:54:51.205Z,22.17
2022-12-03T11:57:35.906Z,23.10
2022-12-03T12:00:09.356Z,19.48
2022-12-03T12:02:43.113Z,26.27
2022-12-03T12:05:24.282Z,23.13
2022-12-03T12:07:53.527Z,21.83
2022-12-03T12:10:47.029Z,21.60
2022-12-03T12:13:27.527Z,21.77
2022-12-03T12:15:56.040Z,21.13
2022-12-03T12:18:38.609Z,20.48
2022-12-03T12:21:39.491Z,24.53
2022-12-03T12:24:30.781Z,21.08
2022-12-03T12:27:02.483Z,19.75
2022-12-03T12:29:30.898Z,22.63
2022-12-03T12:32:03.825Z,20.17
2022-12-03T12:34:32.999Z,19.98
2022-12-03T12:37:03.879Z,19.92
2022-12-03T12:39:32.325Z,20.88
2022-12-03T12:42:02.118Z,20.10
2022-12-03T12:44:30.345Z,19.60
2022-12-03T12:47:03.245Z,21.55
2022-12-03T12:49:31.397Z,26.95
2022-12-03T12:52:01.183Z,21.98
2022-12-03T12:54:29.328Z,23.33
2022-12-03T12:56:57.407Z,22.48
2022-12-03T12:59:27.709Z,22.25
2022-12-03T13:01:56.480Z,21.02
2022-12-03T13:04:26.513Z,21.73
2022-12-03T13:06:55.360Z,21.20
2022-12-03T13:09:25.673Z,19.63
2022-12-03T13:11:56.843Z,20.33
2022-12-03T13:14:31.244Z,20.38
2022-12-03T13:17:03.539Z,20.00
2022-12-03T13:19:46.711Z,18.55
2022-12-03T13:22:19.917Z,19.08
2022-12-03T13:24:50.686Z,18.13
2022-12-03T13:27:29.542Z,21.30
2022-12-03T13:30:01.824Z,21.15
2022-12-03T13:32:32.863Z,20.88
2022-12-03T13:35:06.567Z,21.60
2022-12-03T13:37:35.050Z,15.57
2022-12-03T13:40:13.477Z,21.98
2022-12-03T13:42:42.318Z,21.85
2022-12-03T13:45:39.815Z,21.15
2022-12-03T13:48:19.821Z,22.30
2022-12-03T13:50:48.209Z,23.40
2022-12-03T13:53:22.806Z,22.30
2022-12-03T13:55:53.428Z,20.55
2022-12-03T13:58:21.581Z,19.55
2022-12-03T14:00:51.147Z,20.88
2022-12-03T14:03:20.060Z,22.33
2022-12-03T14:05:48.232Z,21.20
2022-12-03T14:08:16.670Z,21.60
2022-12-03T14:10:45.399Z,22.80
2022-12-03T14:13:13.833Z,22.63
2022-12-03T14:15:41.830Z,26.70
2022-12-03T14:18:12.401Z,25.88
2022-12-03T14:20:40.298Z,27.20
2022-12-03T14:23:08.285Z,27.80
2022-12-03T14:25:36.387Z,28.88
2022-12-03T14:28:08.610Z,26.15
2022-12-03T14:30:36.731Z,27.63
2022-12-03T14:33:05.100Z,24.95
2022-12-03T14:35:35.237Z,27.17
2022-12-03T14:38:03.253Z,26.65
2022-12-03T14:40:32.091Z,27.55
2022-12-03T14:43:00.178Z,27.13
2022-12-03T14:45:29.982Z,25.52
2022-12-03T14:47:58.291Z,25.48
2022-12-03T14:50:27.300Z,27.77
2022-12-03T14:52:56.870Z,28.95
2022-12-03T14:55:25.835Z,26.33
2022-12-03T14:57:53.812Z,26.90
2022-12-03T15:00:23.514Z,26.50
2022-12-03T15:02:51.638Z,29.25
2022-12-03T15:05:26.428Z,29.85
2022-12-03T15:07:58.164Z,28.83
2022-12-03T15:10:26.409Z,29.75
2022-12-03T15:12:54.550Z,33.97
2022-12-03T15:15:22.693Z,33.33
2022-12-03T15:17:50.903Z,30.33
2022-12-03T15:20:19.678Z,30.17
2022-12-03T15:22:47.745Z,27.63
2022-12-03T15:25:24.199Z,27.63
2022-12-03T15:27:52.332Z,31.05
2022-12-03T15:30:20.664Z,31.00
2022-12-03T15:32:48.759Z,29.05
2022-12-03T15:35:18.602Z,29.65
2022-12-03T15:37:46.890Z,29.88
2022-12-03T15:40:15.133Z,29.58
2022-12-03T15:42:44.647Z,29.02
2022-12-03T15:45:15.282Z,29.58
2022-12-03T15:47:43.615Z,31.15
2022-12-03T15:50:13.126Z,29.25
2022-12-03T15:52:41.577Z,30.15
2022-12-03T15:55:11.201Z,30.80
2022-12-03T15:57:39.283Z,28.85
2022-12-03T16:00:11.236Z,28.20
2022-12-03T16:02:47.538Z,29.83
2022-12-03T16:05:19.284Z,29.02
2022-12-03T16:07:47.355Z,31.35
2022-12-03T16:10:17.533Z,30.05
2022-12-03T16:12:47.774Z,32.58
2022-12-03T16:15:20.925Z,30.20
2022-12-03T16:17:52.332Z,32.10
2022-12-03T16:20:20.427Z,34.67
2022-12-03T16:22:48.542Z,32.13
2022-12-03T16:25:16.693Z,34.20
2022-12-03T16:27:44.849Z,31.75
2022-12-03T16:30:14.727Z,32.28
2022-12-03T16:32:44.255Z,35.80
2022-12-03T16:35:12.541Z,34.35
2022-12-03T16:37:40.533Z,41.53
2022-12-03T16:40:09.865Z,39.55
2022-12-03T16:42:38.052Z,37.53
2022-12-03T16:45:33.394Z,42.20
2022-12-03T16:48:03.917Z,36.80
2022-12-03T16:50:32.236Z,38.83
2022-12-03T16:53:00.543Z,37.15
2022-12-03T16:55:28.647Z,36.65
2022-12-03T16:57:58.637Z,37.45
2022-12-03T17:00:27.305Z,35.38
2022-12-03T17:02:55.597Z,36.65
2022-12-03T17:05:25.051Z,33.65
2022-12-03T17:07:53.149Z,33.08
2022-12-03T17:10:21.650Z,35.40
2022-12-03T17:15:38.060Z,34.00
2022-12-03T17:18:07.192Z,33.28
2022-12-03T17:20:38.399Z,34.40
2022-12-03T17:23:06.438Z,36.40
2022-12-03T17:25:35.810Z,36.97
2022-12-03T17:28:04.059Z,36.53
2022-12-03T17:30:32.260Z,35.65
2022-12-03T17:33:00.293Z,34.50
2022-12-03T17:35:29.562Z,36.45
2022-12-03T17:37:59.120Z,38.03
2022-12-03T17:40:27.212Z,38.20
2022-12-03T17:42:55.292Z,40.50
2022-12-03T17:45:23.393Z,41.13
2022-12-03T17:47:51.537Z,40.40
2022-12-03T17:50:19.678Z,41.78
2022-12-03T17:52:47.814Z,39.35
2022-12-03T17:55:27.819Z,51.42
2022-12-03T17:58:01.872Z,41.75
2022-12-03T18:00:31.371Z,38.38
2022-12-03T18:02:59.601Z,41.08
2022-12-03T18:05:27.852Z,36.53
2022-12-03T18:07:56.279Z,40.03
2022-12-03T18:10:25.820Z,39.40
2022-12-03T18:12:58.426Z,40.30
2022-12-03T18:15:29.806Z,39.40
2022-12-03T18:17:58.001Z,37.40
2022-12-03T18:20:26.174Z,36.20
2022-12-03T18:22:54.531Z,38.75
2022-12-03T18:25:22.771Z,36.10
2022-12-03T18:27:52.238Z,38.85
2022-12-03T18:30:20.449Z,38.25
2022-12-03T18:32:48.905Z,38.30
2022-12-03T18:35:16.984Z,37.03
2022-12-03T18:37:45.290Z,38.80
2022-12-03T18:40:20.057Z,45.08
2022-12-03T18:42:49.223Z,36.97
2022-12-03T18:45:18.899Z,34.42
2022-12-03T18:47:47.055Z,35.53
2022-12-03T18:50:15.426Z,38.13
2022-12-03T18:52:43.565Z,38.00
2022-12-03T18:55:18.517Z,39.15
2022-12-03T18:57:46.806Z,36.40
2022-12-03T19:00:16.026Z,34.90
2022-12-03T19:03:02.300Z,35.08
2022-12-03T19:05:32.066Z,33.97
2022-12-03T19:08:00.366Z,33.85
2022-12-03T19:10:29.030Z,31.90
2022-12-03T19:12:57.186Z,35.15
2022-12-03T19:15:25.333Z,35.55
2022-12-03T19:17:54.962Z,35.67
2022-12-03T19:20:23.244Z,34.20
2022-12-03T19:22:51.352Z,32.72
2022-12-03T19:25:19.764Z,32.72
2022-12-03T19:27:49.217Z,34.72
2022-12-03T19:30:17.716Z,34.72
2022-12-03T19:32:45.901Z,36.28
2022-12-03T19:35:15.633Z,34.33
2022-12-03T19:37:43.816Z,32.85
2022-12-03T19:40:12.381Z,31.95
2022-12-03T19:42:40.492Z,32.45
2022-12-03T19:45:09.891Z,32.03
2022-12-03T19:47:38.435Z,30.98
2022-12-03T19:50:08.826Z,35.00
2022-12-03T19:52:38.431Z,32.83
2022-12-03T19:55:07.114Z,33.83
2022-12-03T19:57:35.285Z,34.28
2022-12-03T20:00:04.373Z,31.13
2022-12-03T20:02:40.387Z,31.98
2022-12-03T20:05:08.888Z,33.78
2022-12-03T20:07:38.483Z,32.53
2022-12-03T20:10:08.023Z,30.50
2022-12-03T20:12:36.264Z,34.78
2022-12-03T20:15:04.547Z,31.48
2022-12-03T20:17:32.659Z,31.67
2022-12-03T20:20:00.741Z,33.20
2022-12-03T20:22:28.818Z,35.10
2022-12-03T20:24:58.310Z,30.67
2022-12-03T20:27:26.644Z,29.70
2022-12-03T20:29:54.930Z,33.45
2022-12-03T20:32:23.130Z,30.42
2022-12-03T20:34:51.480Z,30.10
2022-12-03T20:37:19.781Z,31.08
2022-12-03T20:39:50.617Z,32.88
2022-12-03T20:42:20.345Z,30.50
2022-12-03T20:44:48.461Z,33.72
2022-12-03T20:47:17.623Z,31.67
2022-12-03T20:49:45.772Z,37.70
2022-12-03T20:52:13.807Z,34.85
2022-12-03T20:54:41.826Z,37.25
2022-12-03T20:57:09.927Z,37.28
2022-12-03T20:59:39.512Z,31.40
2022-12-03T21:02:07.712Z,31.58
2022-12-03T21:04:35.798Z,35.15
2022-12-03T21:07:04.711Z,33.35
2022-12-03T21:09:32.997Z,31.15
2022-12-03T21:12:01.080Z,32.25
2022-12-03T21:14:29.117Z,31.48
2022-12-03T21:17:08.455Z,31.20
2022-12-03T21:19:38.889Z,29.75
2022-12-03T21:22:07.454Z,31.75
2022-12-03T21:24:36.303Z,30.50
2022-12-03T21:27:04.716Z,31.23
2022-12-03T21:29:32.879Z,29.08
2022-12-03T21:32:02.339Z,29.25
2022-12-03T21:34:36.189Z,30.60
2022-12-03T21:37:05.494Z,31.42
2022-12-03T21:39:33.961Z,31.73
2022-12-03T21:42:34.328Z,29.58
2022-12-03T21:44:50.263Z,30.45
2022-12-03T21:47:19.967Z,32.20
2022-12-03T21:49:48.026Z,29.48
2022-12-03T21:52:16.258Z,30.92
2022-12-03T21:54:44.361Z,30.05
2022-12-03T21:57:12.573Z,32.33
2022-12-03T21:59:40.885Z,30.52
2022-12-03T22:02:10.614Z,30.42
2022-12-03T22:04:40.896Z,30.25
2022-12-03T22:07:08.989Z,30.95
2022-12-03T22:09:37.287Z,30.42
2022-12-03T22:12:05.859Z,32.15
2022-12-03T22:14:34.529Z,31.30
2022-12-03T22:17:02.785Z,32.72
2022-12-03T22:19:30.966Z,34.92
2022-12-03T22:22:00.697Z,33.30
2022-12-03T22:24:29.345Z,32.00
2022-12-03T22:26:57.626Z,36.88
2022-12-03T22:29:26.365Z,35.38
2022-12-03T22:31:54.727Z,37.67
2022-12-03T22:34:22.917Z,34.05
2022-12-03T22:36:50.960Z,33.45
2022-12-03T22:39:20.477Z,34.50
2022-12-03T22:41:48.642Z,31.80
2022-12-03T22:44:16.737Z,31.30
2022-12-03T22:46:45.096Z,30.10
2022-12-03T22:49:14.159Z,32.08
2022-12-03T22:51:42.264Z,29.20
2022-12-03T22:54:12.018Z,29.35
2022-12-03T22:56:41.984Z,26.77
2022-12-03T22:59:10.884Z,27.35
2022-12-03T23:01:41.347Z,25.90
2022-12-03T23:04:11.747Z,25.52
2022-12-03T23:06:40.324Z,24.30
2022-12-03T23:09:09.324Z,22.48
2022-12-03T23:11:38.328Z,22.05
2022-12-03T23:14:07.869Z,23.10
2022-12-03T23:16:35.964Z,22.52
2022-12-03T23:19:05.293Z,25.38
2022-12-03T23:21:35.667Z,24.65
2022-12-03T23:24:05.811Z,24.25
2022-12-03T23:26:36.929Z,23.55
2022-12-03T23:29:05.910Z,25.38
2022-12-03T23:31:36.114Z,25.00
2022-12-03T23:34:05.581Z,25.77
2022-12-03T23:36:34.729Z,25.75
2022-12-03T23:39:03.349Z,28.00
2022-12-03T23:41:31.496Z,28.58
2022-12-03T23:43:59.574Z,27.13
2022-12-03T23:46:29.610Z,28.75
2022-12-03T23:49:00.229Z,26.98
2022-12-03T23:51:28.856Z,26.40
2022-12-03T23:53:57.499Z,24.95
2022-12-03T23:56:28.092Z,27.20
2022-12-03T23:58:56.462Z,25.50
